CPU weather

Calaveras Co Maury Rasmussen Field
San Andreas, California, United States

Public forecast

Using degrees Fahrenheit for public forecast. Weather courtesy of forecast.io.

METAR (pilot weather report)

Closest report is Columbia Airport, 13.0 nm (24.1 km) ESE. Retrieved UTC (0 seconds ago):

TAF (pilot weather forecast)

Closest forecast is Stockton Metropolitan Airport, 31.7 nm (58.8 km) WSW. Retrieved 2019/09/22 18:33 UTC (3 hours ago):

TAF KSCK 221731Z 2218/2318 28006KT P6SM SCT250 FM231500 32005KT P6SM SKC